sensor_id;sensor_type;location;lat;lon;timestamp;P1;durP1;ratioP1;P2;durP2;ratioP2
29774;SDS011;16676;51.202;6.774;2022-08-19T00:01:25;7.13;;;5.13;;
29774;SDS011;16676;51.202;6.774;2022-08-19T00:05:29;7.90;;;5.05;;
29774;SDS011;16676;51.202;6.774;2022-08-19T00:09:31;10.50;;;4.90;;
29774;SDS011;16676;51.202;6.774;2022-08-19T00:13:35;6.13;;;4.65;;
29774;SDS011;16676;51.202;6.774;2022-08-19T00:17:38;7.97;;;5.20;;
29774;SDS011;16676;51.202;6.774;2022-08-19T00:21:39;6.22;;;4.93;;
29774;SDS011;16676;51.202;6.774;2022-08-19T00:25:41;8.98;;;5.63;;
29774;SDS011;16676;51.202;6.774;2022-08-19T00:29:45;9.00;;;6.45;;
29774;SDS011;16676;51.202;6.774;2022-08-19T00:33:47;9.25;;;6.00;;
29774;SDS011;16676;51.202;6.774;2022-08-19T00:37:50;6.97;;;5.53;;
29774;SDS011;16676;51.202;6.774;2022-08-19T00:41:52;8.10;;;6.00;;
29774;SDS011;16676;51.202;6.774;2022-08-19T00:45:55;10.70;;;6.38;;
29774;SDS011;16676;51.202;6.774;2022-08-19T00:49:57;9.95;;;6.65;;
29774;SDS011;16676;51.202;6.774;2022-08-19T00:54:00;10.38;;;7.03;;
29774;SDS011;16676;51.202;6.774;2022-08-19T00:58:04;8.05;;;6.40;;
29774;SDS011;16676;51.202;6.774;2022-08-19T01:02:10;9.40;;;6.50;;
29774;SDS011;16676;51.202;6.774;2022-08-19T01:06:12;8.07;;;6.30;;
29774;SDS011;16676;51.202;6.774;2022-08-19T01:10:15;7.55;;;6.28;;
29774;SDS011;16676;51.202;6.774;2022-08-19T01:14:19;11.13;;;7.00;;
29774;SDS011;16676;51.202;6.774;2022-08-19T01:18:22;11.07;;;6.30;;
29774;SDS011;16676;51.202;6.774;2022-08-19T01:22:28;7.90;;;7.00;;
29774;SDS011;16676;51.202;6.774;2022-08-19T01:26:34;11.40;;;6.97;;
29774;SDS011;16676;51.202;6.774;2022-08-19T01:30:40;9.60;;;7.05;;
29774;SDS011;16676;51.202;6.774;2022-08-19T01:34:43;10.63;;;7.10;;
29774;SDS011;16676;51.202;6.774;2022-08-19T01:38:48;9.18;;;6.80;;
29774;SDS011;16676;51.202;6.774;2022-08-19T01:42:50;8.98;;;6.32;;
29774;SDS011;16676;51.202;6.774;2022-08-19T01:46:53;10.93;;;7.13;;
29774;SDS011;16676;51.202;6.774;2022-08-19T01:50:55;13.35;;;8.10;;
29774;SDS011;16676;51.202;6.774;2022-08-19T01:54:59;10.80;;;8.05;;
29774;SDS011;16676;51.202;6.774;2022-08-19T01:59:02;12.25;;;8.43;;
29774;SDS011;16676;51.202;6.774;2022-08-19T02:03:06;9.88;;;7.28;;
29774;SDS011;16676;51.202;6.774;2022-08-19T02:07:08;10.65;;;7.72;;
29774;SDS011;16676;51.202;6.774;2022-08-19T02:11:17;8.95;;;6.70;;
29774;SDS011;16676;51.202;6.774;2022-08-19T02:15:20;11.07;;;8.48;;
29774;SDS011;16676;51.202;6.774;2022-08-19T02:19:22;9.63;;;7.80;;
29774;SDS011;16676;51.202;6.774;2022-08-19T02:23:24;10.85;;;7.47;;
29774;SDS011;16676;51.202;6.774;2022-08-19T02:27:28;11.77;;;6.50;;
29774;SDS011;16676;51.202;6.774;2022-08-19T02:31:30;10.15;;;6.78;;
29774;SDS011;16676;51.202;6.774;2022-08-19T02:35:33;9.45;;;6.47;;
29774;SDS011;16676;51.202;6.774;2022-08-19T02:39:35;13.98;;;8.82;;
29774;SDS011;16676;51.202;6.774;2022-08-19T02:43:38;15.25;;;9.93;;
29774;SDS011;16676;51.202;6.774;2022-08-19T02:47:40;11.95;;;9.07;;
29774;SDS011;16676;51.202;6.774;2022-08-19T02:51:43;14.98;;;8.20;;
29774;SDS011;16676;51.202;6.774;2022-08-19T02:55:46;12.82;;;8.45;;
29774;SDS011;16676;51.202;6.774;2022-08-19T02:59:50;14.43;;;10.27;;
29774;SDS011;16676;51.202;6.774;2022-08-19T03:03:52;12.35;;;9.25;;
29774;SDS011;16676;51.202;6.774;2022-08-19T03:07:55;10.30;;;7.50;;
29774;SDS011;16676;51.202;6.774;2022-08-19T03:11:57;11.55;;;9.63;;
29774;SDS011;16676;51.202;6.774;2022-08-19T03:16:00;15.75;;;12.00;;
29774;SDS011;16676;51.202;6.774;2022-08-19T03:20:06;14.85;;;10.70;;
29774;SDS011;16676;51.202;6.774;2022-08-19T03:24:09;16.50;;;11.38;;
29774;SDS011;16676;51.202;6.774;2022-08-19T03:28:12;14.35;;;9.93;;
29774;SDS011;16676;51.202;6.774;2022-08-19T03:32:16;12.55;;;9.93;;
29774;SDS011;16676;51.202;6.774;2022-08-19T03:36:19;14.77;;;10.18;;
29774;SDS011;16676;51.202;6.774;2022-08-19T03:40:23;12.75;;;9.60;;
29774;SDS011;16676;51.202;6.774;2022-08-19T03:44:25;15.55;;;9.10;;
29774;SDS011;16676;51.202;6.774;2022-08-19T03:48:28;15.02;;;9.68;;
29774;SDS011;16676;51.202;6.774;2022-08-19T03:52:31;13.77;;;9.85;;
29774;SDS011;16676;51.202;6.774;2022-08-19T03:56:33;13.60;;;9.90;;
29774;SDS011;16676;51.202;6.774;2022-08-19T04:00:36;14.77;;;11.05;;
29774;SDS011;16676;51.202;6.774;2022-08-19T04:04:40;16.05;;;10.90;;
29774;SDS011;16676;51.202;6.774;2022-08-19T04:08:45;19.30;;;12.32;;
29774;SDS011;16676;51.202;6.774;2022-08-19T04:12:47;21.13;;;13.68;;
29774;SDS011;16676;51.202;6.774;2022-08-19T04:16:49;16.55;;;11.93;;
29774;SDS011;16676;51.202;6.774;2022-08-19T04:20:53;21.38;;;12.95;;
29774;SDS011;16676;51.202;6.774;2022-08-19T04:24:55;18.85;;;11.60;;
29774;SDS011;16676;51.202;6.774;2022-08-19T04:28:56;15.55;;;10.20;;
29774;SDS011;16676;51.202;6.774;2022-08-19T04:32:59;15.32;;;11.07;;
29774;SDS011;16676;51.202;6.774;2022-08-19T04:37:04;22.65;;;14.00;;
29774;SDS011;16676;51.202;6.774;2022-08-19T04:41:11;24.52;;;16.40;;
29774;SDS011;16676;51.202;6.774;2022-08-19T04:45:30;27.15;;;19.67;;
29774;SDS011;16676;51.202;6.774;2022-08-19T04:49:32;29.42;;;18.90;;
29774;SDS011;16676;51.202;6.774;2022-08-19T04:53:36;25.60;;;19.95;;
29774;SDS011;16676;51.202;6.774;2022-08-19T04:57:40;25.85;;;21.65;;
29774;SDS011;16676;51.202;6.774;2022-08-19T05:01:42;27.17;;;22.10;;
29774;SDS011;16676;51.202;6.774;2022-08-19T05:05:49;27.98;;;22.55;;
29774;SDS011;16676;51.202;6.774;2022-08-19T05:09:52;30.10;;;22.60;;
29774;SDS011;16676;51.202;6.774;2022-08-19T05:13:55;30.75;;;24.90;;
29774;SDS011;16676;51.202;6.774;2022-08-19T05:17:58;31.52;;;23.75;;
29774;SDS011;16676;51.202;6.774;2022-08-19T05:22:17;30.25;;;25.60;;
29774;SDS011;16676;51.202;6.774;2022-08-19T05:26:36;31.00;;;24.83;;
29774;SDS011;16676;51.202;6.774;2022-08-19T05:30:39;36.80;;;30.13;;
29774;SDS011;16676;51.202;6.774;2022-08-19T05:34:43;33.25;;;27.23;;
29774;SDS011;16676;51.202;6.774;2022-08-19T05:38:45;34.20;;;27.30;;
29774;SDS011;16676;51.202;6.774;2022-08-19T05:42:49;35.03;;;27.08;;
29774;SDS011;16676;51.202;6.774;2022-08-19T05:46:52;31.30;;;27.02;;
29774;SDS011;16676;51.202;6.774;2022-08-19T05:50:54;26.65;;;22.75;;
29774;SDS011;16676;51.202;6.774;2022-08-19T05:54:56;33.22;;;24.65;;
29774;SDS011;16676;51.202;6.774;2022-08-19T05:59:00;29.15;;;22.85;;
29774;SDS011;16676;51.202;6.774;2022-08-19T06:03:02;30.45;;;19.75;;
29774;SDS011;16676;51.202;6.774;2022-08-19T06:07:04;31.95;;;26.13;;
29774;SDS011;16676;51.202;6.774;2022-08-19T06:11:13;32.00;;;27.25;;
29774;SDS011;16676;51.202;6.774;2022-08-19T06:15:18;32.80;;;26.27;;
29774;SDS011;16676;51.202;6.774;2022-08-19T06:19:21;33.72;;;27.65;;
29774;SDS011;16676;51.202;6.774;2022-08-19T06:23:25;32.22;;;25.95;;
29774;SDS011;16676;51.202;6.774;2022-08-19T06:27:27;36.70;;;27.67;;
29774;SDS011;16676;51.202;6.774;2022-08-19T06:31:32;31.25;;;25.95;;
29774;SDS011;16676;51.202;6.774;2022-08-19T06:35:38;37.47;;;31.00;;
29774;SDS011;16676;51.202;6.774;2022-08-19T06:39:41;36.30;;;29.95;;
29774;SDS011;16676;51.202;6.774;2022-08-19T06:43:44;40.05;;;30.42;;
29774;SDS011;16676;51.202;6.774;2022-08-19T06:47:48;34.15;;;28.02;;
29774;SDS011;16676;51.202;6.774;2022-08-19T06:51:49;36.80;;;27.40;;
29774;SDS011;16676;51.202;6.774;2022-08-19T06:55:52;38.58;;;28.70;;
29774;SDS011;16676;51.202;6.774;2022-08-19T07:00:02;34.17;;;28.92;;
29774;SDS011;16676;51.202;6.774;2022-08-19T07:04:07;37.88;;;31.00;;
29774;SDS011;16676;51.202;6.774;2022-08-19T07:08:09;32.70;;;25.73;;
29774;SDS011;16676;51.202;6.774;2022-08-19T07:12:12;22.75;;;18.90;;
29774;SDS011;16676;51.202;6.774;2022-08-19T07:16:15;39.25;;;28.88;;
29774;SDS011;16676;51.202;6.774;2022-08-19T07:20:22;35.58;;;28.00;;
29774;SDS011;16676;51.202;6.774;2022-08-19T07:24:24;38.85;;;29.83;;
29774;SDS011;16676;51.202;6.774;2022-08-19T07:28:27;38.63;;;30.70;;
29774;SDS011;16676;51.202;6.774;2022-08-19T07:32:30;33.38;;;27.70;;
29774;SDS011;16676;51.202;6.774;2022-08-19T07:36:34;44.15;;;31.30;;
29774;SDS011;16676;51.202;6.774;2022-08-19T07:40:37;35.03;;;26.05;;
29774;SDS011;16676;51.202;6.774;2022-08-19T07:44:40;25.90;;;20.58;;
29774;SDS011;16676;51.202;6.774;2022-08-19T07:48:43;29.10;;;22.10;;
29774;SDS011;16676;51.202;6.774;2022-08-19T07:52:48;30.67;;;21.60;;
29774;SDS011;16676;51.202;6.774;2022-08-19T07:56:51;25.17;;;18.13;;
29774;SDS011;16676;51.202;6.774;2022-08-19T08:00:53;27.45;;;19.58;;
29774;SDS011;16676;51.202;6.774;2022-08-19T08:04:55;23.92;;;16.90;;
29774;SDS011;16676;51.202;6.774;2022-08-19T08:09:17;14.90;;;11.90;;
29774;SDS011;16676;51.202;6.774;2022-08-19T08:13:21;20.88;;;14.05;;
29774;SDS011;16676;51.202;6.774;2022-08-19T08:17:24;24.45;;;18.58;;
29774;SDS011;16676;51.202;6.774;2022-08-19T08:21:27;27.88;;;21.25;;
29774;SDS011;16676;51.202;6.774;2022-08-19T08:25:31;32.13;;;24.52;;
29774;SDS011;16676;51.202;6.774;2022-08-19T08:29:33;51.80;;;37.22;;
29774;SDS011;16676;51.202;6.774;2022-08-19T08:33:35;41.78;;;30.65;;
29774;SDS011;16676;51.202;6.774;2022-08-19T08:37:37;43.33;;;30.95;;
29774;SDS011;16676;51.202;6.774;2022-08-19T08:41:43;47.28;;;31.38;;
29774;SDS011;16676;51.202;6.774;2022-08-19T08:45:51;49.35;;;32.03;;
29774;SDS011;16676;51.202;6.774;2022-08-19T08:49:59;40.58;;;29.20;;
29774;SDS011;16676;51.202;6.774;2022-08-19T08:54:06;43.45;;;30.02;;
29774;SDS011;16676;51.202;6.774;2022-08-19T08:58:13;36.85;;;25.92;;
29774;SDS011;16676;51.202;6.774;2022-08-19T09:02:19;28.23;;;19.85;;
29774;SDS011;16676;51.202;6.774;2022-08-19T09:06:22;41.30;;;30.02;;
29774;SDS011;16676;51.202;6.774;2022-08-19T09:10:34;29.50;;;22.48;;
29774;SDS011;16676;51.202;6.774;2022-08-19T09:14:43;29.40;;;21.85;;
29774;SDS011;16676;51.202;6.774;2022-08-19T09:18:56;34.03;;;23.85;;
29774;SDS011;16676;51.202;6.774;2022-08-19T09:23:02;34.15;;;23.45;;
29774;SDS011;16676;51.202;6.774;2022-08-19T09:27:04;31.38;;;19.50;;
29774;SDS011;16676;51.202;6.774;2022-08-19T09:31:07;26.48;;;17.38;;
29774;SDS011;16676;51.202;6.774;2022-08-19T09:35:09;34.03;;;21.05;;
29774;SDS011;16676;51.202;6.774;2022-08-19T09:39:12;24.13;;;15.90;;
29774;SDS011;16676;51.202;6.774;2022-08-19T09:43:14;25.90;;;17.95;;
29774;SDS011;16676;51.202;6.774;2022-08-19T09:47:17;23.25;;;15.23;;
29774;SDS011;16676;51.202;6.774;2022-08-19T09:51:19;16.80;;;13.20;;
29774;SDS011;16676;51.202;6.774;2022-08-19T09:55:24;25.65;;;17.63;;
29774;SDS011;16676;51.202;6.774;2022-08-19T09:59:27;21.63;;;15.07;;
29774;SDS011;16676;51.202;6.774;2022-08-19T10:03:31;15.73;;;9.38;;
29774;SDS011;16676;51.202;6.774;2022-08-19T10:07:34;11.77;;;8.35;;
29774;SDS011;16676;51.202;6.774;2022-08-19T10:11:36;9.38;;;7.25;;
29774;SDS011;16676;51.202;6.774;2022-08-19T10:15:41;8.77;;;6.70;;
29774;SDS011;16676;51.202;6.774;2022-08-19T10:19:44;7.68;;;6.88;;
29774;SDS011;16676;51.202;6.774;2022-08-19T10:23:47;10.43;;;6.20;;
29774;SDS011;16676;51.202;6.774;2022-08-19T10:27:50;7.20;;;6.50;;
29774;SDS011;16676;51.202;6.774;2022-08-19T10:31:52;9.80;;;6.13;;
29774;SDS011;16676;51.202;6.774;2022-08-19T10:35:59;6.20;;;5.57;;
29774;SDS011;16676;51.202;6.774;2022-08-19T10:40:03;6.20;;;5.60;;
29774;SDS011;16676;51.202;6.774;2022-08-19T10:44:07;9.32;;;6.03;;
29774;SDS011;16676;51.202;6.774;2022-08-19T10:48:10;7.85;;;5.95;;
29774;SDS011;16676;51.202;6.774;2022-08-19T10:52:14;8.35;;;6.05;;
29774;SDS011;16676;51.202;6.774;2022-08-19T10:56:34;6.15;;;5.25;;
29774;SDS011;16676;51.202;6.774;2022-08-19T11:00:56;6.47;;;5.60;;
29774;SDS011;16676;51.202;6.774;2022-08-19T11:04:59;6.68;;;6.00;;
29774;SDS011;16676;51.202;6.774;2022-08-19T11:09:03;9.23;;;7.03;;
29774;SDS011;16676;51.202;6.774;2022-08-19T11:13:05;9.50;;;6.80;;
29774;SDS011;16676;51.202;6.774;2022-08-19T11:17:07;11.40;;;7.25;;
29774;SDS011;16676;51.202;6.774;2022-08-19T11:21:12;10.30;;;6.95;;
29774;SDS011;16676;51.202;6.774;2022-08-19T11:25:18;6.38;;;5.70;;
29774;SDS011;16676;51.202;6.774;2022-08-19T11:29:21;9.00;;;7.22;;
29774;SDS011;16676;51.202;6.774;2022-08-19T11:33:25;8.70;;;7.10;;
29774;SDS011;16676;51.202;6.774;2022-08-19T11:37:27;10.05;;;7.20;;
29774;SDS011;16676;51.202;6.774;2022-08-19T11:41:30;9.52;;;6.40;;
29774;SDS011;16676;51.202;6.774;2022-08-19T11:45:33;9.15;;;6.47;;
29774;SDS011;16676;51.202;6.774;2022-08-19T11:49:35;8.70;;;7.18;;
29774;SDS011;16676;51.202;6.774;2022-08-19T11:53:38;12.02;;;5.80;;
29774;SDS011;16676;51.202;6.774;2022-08-19T11:57:41;7.95;;;6.00;;
29774;SDS011;16676;51.202;6.774;2022-08-19T12:01:43;9.35;;;6.47;;
29774;SDS011;16676;51.202;6.774;2022-08-19T12:05:45;8.30;;;6.30;;
29774;SDS011;16676;51.202;6.774;2022-08-19T12:09:47;9.02;;;6.47;;
29774;SDS011;16676;51.202;6.774;2022-08-19T12:13:51;10.52;;;6.43;;
29774;SDS011;16676;51.202;6.774;2022-08-19T12:17:53;10.00;;;6.35;;
29774;SDS011;16676;51.202;6.774;2022-08-19T12:21:58;8.50;;;6.60;;
29774;SDS011;16676;51.202;6.774;2022-08-19T12:26:01;8.00;;;6.53;;
29774;SDS011;16676;51.202;6.774;2022-08-19T12:30:05;16.25;;;6.70;;
29774;SDS011;16676;51.202;6.774;2022-08-19T12:34:08;11.43;;;6.50;;
29774;SDS011;16676;51.202;6.774;2022-08-19T12:38:10;8.90;;;6.00;;
29774;SDS011;16676;51.202;6.774;2022-08-19T12:42:13;9.30;;;6.28;;
29774;SDS011;16676;51.202;6.774;2022-08-19T12:46:18;7.57;;;5.60;;
29774;SDS011;16676;51.202;6.774;2022-08-19T12:50:20;12.25;;;6.30;;
29774;SDS011;16676;51.202;6.774;2022-08-19T12:54:22;9.48;;;6.05;;
29774;SDS011;16676;51.202;6.774;2022-08-19T12:58:24;6.97;;;5.97;;
29774;SDS011;16676;51.202;6.774;2022-08-19T13:02:27;9.52;;;6.13;;
29774;SDS011;16676;51.202;6.774;2022-08-19T13:06:31;7.15;;;5.32;;
29774;SDS011;16676;51.202;6.774;2022-08-19T13:10:34;7.97;;;5.82;;
29774;SDS011;16676;51.202;6.774;2022-08-19T13:14:37;8.40;;;5.25;;
29774;SDS011;16676;51.202;6.774;2022-08-19T13:18:42;7.95;;;5.97;;
29774;SDS011;16676;51.202;6.774;2022-08-19T13:22:46;7.57;;;5.57;;
29774;SDS011;16676;51.202;6.774;2022-08-19T13:26:48;7.15;;;5.47;;
29774;SDS011;16676;51.202;6.774;2022-08-19T13:30:50;9.32;;;5.55;;
29774;SDS011;16676;51.202;6.774;2022-08-19T13:35:11;8.50;;;5.07;;
29774;SDS011;16676;51.202;6.774;2022-08-19T13:39:13;7.70;;;5.00;;
29774;SDS011;16676;51.202;6.774;2022-08-19T13:43:15;7.43;;;4.45;;
29774;SDS011;16676;51.202;6.774;2022-08-19T13:47:17;8.27;;;4.28;;
29774;SDS011;16676;51.202;6.774;2022-08-19T13:51:21;6.20;;;4.63;;
29774;SDS011;16676;51.202;6.774;2022-08-19T13:55:24;7.40;;;4.47;;
29774;SDS011;16676;51.202;6.774;2022-08-19T13:59:26;9.68;;;5.05;;
29774;SDS011;16676;51.202;6.774;2022-08-19T14:03:28;8.35;;;4.65;;
29774;SDS011;16676;51.202;6.774;2022-08-19T14:07:32;7.05;;;4.43;;
29774;SDS011;16676;51.202;6.774;2022-08-19T14:11:34;5.43;;;4.35;;
29774;SDS011;16676;51.202;6.774;2022-08-19T14:15:37;5.68;;;4.13;;
29774;SDS011;16676;51.202;6.774;2022-08-19T14:19:39;6.15;;;4.03;;
29774;SDS011;16676;51.202;6.774;2022-08-19T14:23:42;5.68;;;3.75;;
29774;SDS011;16676;51.202;6.774;2022-08-19T14:27:45;5.45;;;3.50;;
29774;SDS011;16676;51.202;6.774;2022-08-19T14:31:48;6.88;;;3.85;;
29774;SDS011;16676;51.202;6.774;2022-08-19T14:35:50;5.70;;;3.60;;
29774;SDS011;16676;51.202;6.774;2022-08-19T14:39:53;5.20;;;3.25;;
29774;SDS011;16676;51.202;6.774;2022-08-19T14:43:55;4.80;;;3.33;;
29774;SDS011;16676;51.202;6.774;2022-08-19T14:47:58;8.52;;;3.40;;
29774;SDS011;16676;51.202;6.774;2022-08-19T14:52:00;4.55;;;2.92;;
29774;SDS011;16676;51.202;6.774;2022-08-19T14:56:08;5.10;;;3.30;;
29774;SDS011;16676;51.202;6.774;2022-08-19T15:00:11;4.60;;;2.92;;
29774;SDS011;16676;51.202;6.774;2022-08-19T15:04:14;4.05;;;2.80;;
29774;SDS011;16676;51.202;6.774;2022-08-19T15:08:16;3.60;;;2.60;;
29774;SDS011;16676;51.202;6.774;2022-08-19T15:12:19;4.90;;;2.60;;
29774;SDS011;16676;51.202;6.774;2022-08-19T15:16:22;7.30;;;2.90;;
29774;SDS011;16676;51.202;6.774;2022-08-19T15:20:25;5.88;;;2.70;;
29774;SDS011;16676;51.202;6.774;2022-08-19T15:24:27;5.78;;;2.72;;
29774;SDS011;16676;51.202;6.774;2022-08-19T15:28:30;3.42;;;2.80;;
29774;SDS011;16676;51.202;6.774;2022-08-19T15:32:32;8.00;;;2.90;;
29774;SDS011;16676;51.202;6.774;2022-08-19T15:36:35;4.63;;;2.80;;
29774;SDS011;16676;51.202;6.774;2022-08-19T15:40:37;4.43;;;3.13;;
29774;SDS011;16676;51.202;6.774;2022-08-19T15:44:41;7.25;;;3.22;;
29774;SDS011;16676;51.202;6.774;2022-08-19T15:48:44;7.05;;;3.33;;
29774;SDS011;16676;51.202;6.774;2022-08-19T15:52:46;5.65;;;3.42;;
29774;SDS011;16676;51.202;6.774;2022-08-19T15:56:51;5.35;;;3.60;;
29774;SDS011;16676;51.202;6.774;2022-08-19T16:01:12;5.03;;;3.75;;
29774;SDS011;16676;51.202;6.774;2022-08-19T16:05:31;5.30;;;3.50;;
29774;SDS011;16676;51.202;6.774;2022-08-19T16:09:50;5.40;;;3.15;;
29774;SDS011;16676;51.202;6.774;2022-08-19T16:13:52;6.15;;;3.00;;
29774;SDS011;16676;51.202;6.774;2022-08-19T16:17:56;3.65;;;2.92;;
29774;SDS011;16676;51.202;6.774;2022-08-19T16:22:01;3.77;;;2.93;;
29774;SDS011;16676;51.202;6.774;2022-08-19T16:26:03;6.85;;;3.20;;
29774;SDS011;16676;51.202;6.774;2022-08-19T16:30:05;3.80;;;2.88;;
29774;SDS011;16676;51.202;6.774;2022-08-19T16:34:09;4.80;;;3.50;;
29774;SDS011;16676;51.202;6.774;2022-08-19T16:38:12;6.88;;;3.38;;
29774;SDS011;16676;51.202;6.774;2022-08-19T16:42:14;4.55;;;3.63;;
29774;SDS011;16676;51.202;6.774;2022-08-19T16:46:16;5.60;;;3.65;;
29774;SDS011;16676;51.202;6.774;2022-08-19T16:50:19;6.07;;;3.50;;
29774;SDS011;16676;51.202;6.774;2022-08-19T16:54:21;17.98;;;4.07;;
29774;SDS011;16676;51.202;6.774;2022-08-19T16:58:23;31.45;;;5.10;;
29774;SDS011;16676;51.202;6.774;2022-08-19T17:02:27;31.52;;;4.80;;
29774;SDS011;16676;51.202;6.774;2022-08-19T17:06:30;24.67;;;4.75;;
29774;SDS011;16676;51.202;6.774;2022-08-19T17:10:32;17.90;;;3.95;;
29774;SDS011;16676;51.202;6.774;2022-08-19T17:14:37;15.68;;;4.40;;
29774;SDS011;16676;51.202;6.774;2022-08-19T17:18:39;12.82;;;4.03;;
29774;SDS011;16676;51.202;6.774;2022-08-19T17:22:42;10.48;;;3.72;;
29774;SDS011;16676;51.202;6.774;2022-08-19T17:26:44;10.95;;;4.00;;
29774;SDS011;16676;51.202;6.774;2022-08-19T17:30:47;4.50;;;3.50;;
29774;SDS011;16676;51.202;6.774;2022-08-19T17:34:49;5.88;;;3.33;;
29774;SDS011;16676;51.202;6.774;2022-08-19T17:38:55;4.15;;;3.28;;
29774;SDS011;16676;51.202;6.774;2022-08-19T17:42:58;3.80;;;3.15;;
29774;SDS011;16676;51.202;6.774;2022-08-19T17:47:00;6.45;;;3.50;;
29774;SDS011;16676;51.202;6.774;2022-08-19T17:51:11;4.57;;;3.40;;
29774;SDS011;16676;51.202;6.774;2022-08-19T17:55:16;5.00;;;3.30;;
29774;SDS011;16676;51.202;6.774;2022-08-19T17:59:18;11.30;;;4.32;;
29774;SDS011;16676;51.202;6.774;2022-08-19T18:03:20;11.32;;;4.60;;
29774;SDS011;16676;51.202;6.774;2022-08-19T18:07:21;10.23;;;4.43;;
29774;SDS011;16676;51.202;6.774;2022-08-19T18:11:25;16.77;;;7.13;;
29774;SDS011;16676;51.202;6.774;2022-08-19T18:15:26;28.92;;;9.75;;
29774;SDS011;16676;51.202;6.774;2022-08-19T18:19:28;26.13;;;7.38;;
29774;SDS011;16676;51.202;6.774;2022-08-19T18:23:30;14.60;;;6.38;;
29774;SDS011;16676;51.202;6.774;2022-08-19T18:27:34;12.38;;;5.00;;
29774;SDS011;16676;51.202;6.774;2022-08-19T18:31:36;6.05;;;4.18;;
29774;SDS011;16676;51.202;6.774;2022-08-19T18:35:39;6.30;;;3.97;;
29774;SDS011;16676;51.202;6.774;2022-08-19T18:39:44;8.10;;;3.78;;
29774;SDS011;16676;51.202;6.774;2022-08-19T18:44:05;5.40;;;3.58;;
29774;SDS011;16676;51.202;6.774;2022-08-19T18:48:24;4.40;;;3.08;;
29774;SDS011;16676;51.202;6.774;2022-08-19T18:52:44;5.53;;;3.25;;
29774;SDS011;16676;51.202;6.774;2022-08-19T18:56:46;6.00;;;2.90;;
29774;SDS011;16676;51.202;6.774;2022-08-19T19:00:50;3.50;;;2.88;;
29774;SDS011;16676;51.202;6.774;2022-08-19T19:04:55;4.60;;;2.80;;
29774;SDS011;16676;51.202;6.774;2022-08-19T19:08:57;5.03;;;2.63;;
29774;SDS011;16676;51.202;6.774;2022-08-19T19:12:59;3.60;;;2.85;;
29774;SDS011;16676;51.202;6.774;2022-08-19T19:17:04;4.22;;;2.50;;
29774;SDS011;16676;51.202;6.774;2022-08-19T19:21:07;3.67;;;2.40;;
29774;SDS011;16676;51.202;6.774;2022-08-19T19:25:09;3.15;;;2.40;;
29774;SDS011;16676;51.202;6.774;2022-08-19T19:29:11;4.03;;;2.30;;
29774;SDS011;16676;51.202;6.774;2022-08-19T19:33:15;3.40;;;2.20;;
29774;SDS011;16676;51.202;6.774;2022-08-19T19:37:17;3.25;;;2.53;;
29774;SDS011;16676;51.202;6.774;2022-08-19T19:41:20;2.30;;;2.10;;
29774;SDS011;16676;51.202;6.774;2022-08-19T19:45:23;3.38;;;2.38;;
29774;SDS011;16676;51.202;6.774;2022-08-19T19:49:28;3.80;;;2.40;;
29774;SDS011;16676;51.202;6.774;2022-08-19T19:53:32;5.75;;;2.55;;
29774;SDS011;16676;51.202;6.774;2022-08-19T19:57:34;4.93;;;2.28;;
29774;SDS011;16676;51.202;6.774;2022-08-19T20:01:38;4.65;;;2.55;;
29774;SDS011;16676;51.202;6.774;2022-08-19T20:05:46;3.97;;;2.20;;
29774;SDS011;16676;51.202;6.774;2022-08-19T20:09:48;8.25;;;3.03;;
29774;SDS011;16676;51.202;6.774;2022-08-19T20:13:50;4.20;;;2.13;;
29774;SDS011;16676;51.202;6.774;2022-08-19T20:17:52;3.33;;;2.22;;
29774;SDS011;16676;51.202;6.774;2022-08-19T20:21:55;4.43;;;2.30;;
29774;SDS011;16676;51.202;6.774;2022-08-19T20:25:57;3.13;;;2.05;;
29774;SDS011;16676;51.202;6.774;2022-08-19T20:29:59;3.55;;;1.70;;
29774;SDS011;16676;51.202;6.774;2022-08-19T20:34:04;2.58;;;1.83;;
29774;SDS011;16676;51.202;6.774;2022-08-19T20:38:07;4.47;;;1.58;;
29774;SDS011;16676;51.202;6.774;2022-08-19T20:42:09;2.50;;;1.30;;
29774;SDS011;16676;51.202;6.774;2022-08-19T20:46:11;3.33;;;1.23;;
29774;SDS011;16676;51.202;6.774;2022-08-19T20:50:14;2.05;;;1.17;;
29774;SDS011;16676;51.202;6.774;2022-08-19T20:54:18;2.15;;;1.10;;
29774;SDS011;16676;51.202;6.774;2022-08-19T20:58:21;2.35;;;0.90;;
29774;SDS011;16676;51.202;6.774;2022-08-19T21:02:23;1.67;;;1.17;;
29774;SDS011;16676;51.202;6.774;2022-08-19T21:06:25;1.83;;;1.20;;
29774;SDS011;16676;51.202;6.774;2022-08-19T21:10:28;2.47;;;1.23;;
29774;SDS011;16676;51.202;6.774;2022-08-19T21:14:31;1.48;;;0.98;;
29774;SDS011;16676;51.202;6.774;2022-08-19T21:18:33;1.15;;;1.05;;
29774;SDS011;16676;51.202;6.774;2022-08-19T21:22:35;1.58;;;1.00;;
29774;SDS011;16676;51.202;6.774;2022-08-19T21:26:39;3.78;;;1.08;;
29774;SDS011;16676;51.202;6.774;2022-08-19T21:30:41;2.30;;;1.00;;
29774;SDS011;16676;51.202;6.774;2022-08-19T21:34:43;1.60;;;1.35;;
29774;SDS011;16676;51.202;6.774;2022-08-19T21:38:45;2.47;;;1.27;;
29774;SDS011;16676;51.202;6.774;2022-08-19T21:42:49;1.27;;;1.17;;
29774;SDS011;16676;51.202;6.774;2022-08-19T21:46:51;1.80;;;1.15;;
29774;SDS011;16676;51.202;6.774;2022-08-19T21:50:53;1.52;;;1.08;;
29774;SDS011;16676;51.202;6.774;2022-08-19T21:54:55;2.30;;;1.20;;
29774;SDS011;16676;51.202;6.774;2022-08-19T21:58:58;5.38;;;1.40;;
29774;SDS011;16676;51.202;6.774;2022-08-19T22:03:00;4.20;;;1.67;;
29774;SDS011;16676;51.202;6.774;2022-08-19T22:07:02;3.03;;;1.60;;
29774;SDS011;16676;51.202;6.774;2022-08-19T22:11:08;3.67;;;1.92;;
29774;SDS011;16676;51.202;6.774;2022-08-19T22:15:12;3.22;;;1.80;;
29774;SDS011;16676;51.202;6.774;2022-08-19T22:19:15;2.55;;;1.70;;
29774;SDS011;16676;51.202;6.774;2022-08-19T22:23:17;3.00;;;1.90;;
29774;SDS011;16676;51.202;6.774;2022-08-19T22:27:19;3.60;;;1.95;;
29774;SDS011;16676;51.202;6.774;2022-08-19T22:31:22;5.53;;;2.50;;
29774;SDS011;16676;51.202;6.774;2022-08-19T22:35:25;2.63;;;2.00;;
29774;SDS011;16676;51.202;6.774;2022-08-19T22:39:30;5.70;;;1.98;;
29774;SDS011;16676;51.202;6.774;2022-08-19T22:43:32;3.17;;;2.08;;
29774;SDS011;16676;51.202;6.774;2022-08-19T22:47:36;3.55;;;2.17;;
29774;SDS011;16676;51.202;6.774;2022-08-19T22:51:38;5.10;;;2.40;;
29774;SDS011;16676;51.202;6.774;2022-08-19T22:55:57;5.63;;;2.10;;
29774;SDS011;16676;51.202;6.774;2022-08-19T22:59:59;5.28;;;1.95;;
29774;SDS011;16676;51.202;6.774;2022-08-19T23:04:03;3.42;;;1.90;;
29774;SDS011;16676;51.202;6.774;2022-08-19T23:08:05;4.00;;;2.10;;
29774;SDS011;16676;51.202;6.774;2022-08-19T23:12:07;3.95;;;1.85;;
29774;SDS011;16676;51.202;6.774;2022-08-19T23:16:11;2.65;;;1.83;;
29774;SDS011;16676;51.202;6.774;2022-08-19T23:20:15;3.25;;;1.85;;
29774;SDS011;16676;51.202;6.774;2022-08-19T23:24:17;4.07;;;1.90;;
29774;SDS011;16676;51.202;6.774;2022-08-19T23:28:19;3.20;;;1.58;;
29774;SDS011;16676;51.202;6.774;2022-08-19T23:32:39;4.30;;;2.10;;
29774;SDS011;16676;51.202;6.774;2022-08-19T23:36:43;4.38;;;1.70;;
29774;SDS011;16676;51.202;6.774;2022-08-19T23:40:45;2.28;;;1.67;;
29774;SDS011;16676;51.202;6.774;2022-08-19T23:44:47;2.65;;;1.30;;
29774;SDS011;16676;51.202;6.774;2022-08-19T23:48:49;2.00;;;1.48;;
29774;SDS011;16676;51.202;6.774;2022-08-19T23:52:54;4.22;;;1.75;;
29774;SDS011;16676;51.202;6.774;2022-08-19T23:56:57;2.85;;;1.30;;
